Time;durP1;ratioP1;P1;durP2;ratioP2;P2;SDS_P1;SDS_P2;PMS_P1;PMS_P2;Temp;Humidity;BMP_temperature;BMP_pressure;BME280_temperature;BME280_humidity;BME280_pressure;Samples;Min_cycle;Max_cycle;Signal;HPM_P1;HPM_P2
2022/09/09 00:01:37;;;;;;;64.20;8.10;;;;;;;18.46;100.00;97584.22;4964758;28;20108;-55
2022/09/09 00:04:10;;;;;;;49.33;6.05;;;;;;;18.58;100.00;97575.31;4964220;28;20061;-55
2022/09/09 00:06:50;;;;;;;;;;;;;;;18.77;100.00;97576.47;4966669;28;20087;-55
2022/09/09 00:09:27;;;;;;;52.22;6.78;;;;;;;18.34;100.00;97571.97;4965661;28;19964;-56
2022/09/09 00:11:58;;;;;;;47.28;6.57;;;;;;;18.43;100.00;97565.97;4966263;28;20042;-55
2022/09/09 00:14:33;;;;;;;51.33;6.95;;;;;;;18.16;100.00;97568.97;4965577;28;20069;-55
2022/09/09 00:17:08;;;;;;;48.92;6.05;;;;;;;18.24;100.00;97571.88;4964731;28;20070;-55
2022/09/09 00:20:01;;;;;;;49.67;7.93;;;;;;;18.30;100.00;97566.94;4965660;28;20031;-56
2022/09/09 00:22:33;;;;;;;50.38;6.95;;;;;;;18.41;100.00;97563.44;4960784;28;20043;-55
2022/09/09 00:25:12;;;;;;;49.53;7.00;;;;;;;18.41;100.00;97560.78;4967441;28;20080;-55
2022/09/09 00:27:44;;;;;;;42.05;6.47;;;;;;;18.41;100.00;97557.31;4965915;28;20715;-55
2022/09/09 00:30:22;;;;;;;43.67;6.20;;;;;;;17.99;100.00;97562.41;4965901;28;20069;-57
2022/09/09 00:33:14;;;;;;;50.05;6.18;;;;;;;18.59;100.00;97553.19;4966139;28;20030;-55
2022/09/09 00:35:45;;;;;;;47.65;6.25;;;;;;;17.97;100.00;97564.31;4955867;28;20122;-54
2022/09/09 00:38:32;;;;;;;45.33;5.75;;;;;;;18.13;100.00;97559.53;4966480;28;20023;-56
2022/09/09 00:41:42;;;;;;;49.85;6.30;;;;;;;18.39;100.00;97562.72;4966305;28;20038;-56
2022/09/09 00:44:29;;;;;;;43.58;5.63;;;;;;;18.20;100.00;97565.16;4963109;28;20050;-55
2022/09/09 00:47:26;;;;;;;44.20;6.00;;;;;;;17.80;100.00;97565.59;4965966;28;20046;-55
2022/09/09 00:50:04;;;;;;;47.95;6.22;;;;;;;18.10;100.00;97555.34;4964073;28;20108;-58
2022/09/09 00:52:39;;;;;;;44.00;6.07;;;;;;;18.05;100.00;97557.50;4966735;28;20100;-56
2022/09/09 00:55:40;;;;;;;46.17;6.22;;;;;;;17.97;100.00;97565.16;4967762;28;20034;-55
2022/09/09 00:58:08;;;;;;;47.20;6.07;;;;;;;18.15;100.00;97562.03;4969612;28;20047;-56
2022/09/09 01:01:12;;;;;;;46.88;6.30;;;;;;;17.81;100.00;97565.50;4969156;28;20579;-55
2022/09/09 01:03:55;;;;;;;42.72;6.00;;;;;;;17.97;100.00;97565.16;4929238;29;20045;-57
2022/09/09 01:06:23;;;;;;;50.35;6.70;;;;;;;18.15;100.00;97562.03;4928741;29;20272;-56
2022/09/09 01:09:12;;;;;;;53.13;6.47;;;;;;;18.21;100.00;97565.00;4952647;28;20057;-56
2022/09/09 01:11:49;;;;;;;39.72;5.88;;;;;;;17.97;100.00;97564.31;4967592;28;20043;-55
2022/09/09 01:14:38;;;;;;;50.63;6.70;;;;;;;18.10;100.00;97562.38;4969573;28;20032;-56
2022/09/09 01:17:31;;;;;;;47.03;6.40;;;;;;;17.90;100.00;97562.16;4969768;28;20035;-55
2022/09/09 01:20:13;;;;;;;40.00;5.57;;;;;;;18.38;100.00;97563.69;4970932;28;20685;-55
2022/09/09 01:23:00;;;;;;;39.88;5.07;;;;;;;18.03;100.00;97554.13;4969871;28;20082;-56
2022/09/09 01:26:04;;;;;;;30.02;4.70;;;;;;;18.33;100.00;97560.59;4968866;28;20553;-55
2022/09/09 01:28:30;;;;;;;30.77;4.80;;;;;;;18.11;100.00;97556.16;4969972;28;20014;-55
2022/09/09 01:30:57;;;;;;;38.88;5.28;;;;;;;18.59;100.00;97555.00;4969696;28;20105;-55
2022/09/09 01:33:22;;;;;;;37.65;5.63;;;;;;;18.39;100.00;97560.09;4968351;28;20122;-55
2022/09/09 01:35:56;;;;;;;33.25;5.25;;;;;;;18.06;100.00;97563.59;4970380;28;20046;-55
2022/09/09 01:38:23;;;;;;;44.03;5.85;;;;;;;17.75;100.00;97565.13;4970815;28;20025;-56
2022/09/09 01:40:51;;;;;;;42.15;5.88;;;;;;;17.78;100.00;97564.88;4968892;28;20828;-57
2022/09/09 01:43:21;;;;;;;42.00;5.95;;;;;;;17.87;100.00;97565.03;4968232;28;20034;-55
2022/09/09 01:45:49;;;;;;;38.88;6.03;;;;;;;17.88;100.00;97561.44;4970008;28;20066;-55
2022/09/09 01:48:15;;;;;;;43.30;6.10;;;;;;;17.98;100.00;97561.56;4968136;28;20026;-58
2022/09/09 01:50:40;;;;;;;41.00;5.53;;;;;;;18.25;100.00;97562.97;4969073;28;20125;-54
2022/09/09 01:53:06;;;;;;;30.80;4.93;;;;;;;17.52;100.00;97571.19;4968518;28;20641;-55
2022/09/09 01:55:37;;;;;;;33.28;5.00;;;;;;;17.69;100.00;97576.97;4970570;28;20045;-56
2022/09/09 01:58:27;;;;;;;37.53;5.25;;;;;;;17.74;100.00;97564.28;4968770;28;20026;-55
2022/09/09 02:01:12;;;;;;;38.63;5.47;;;;;;;17.84;100.00;97562.59;4968008;28;20034;-56
2022/09/09 02:03:38;;;;;;;42.63;5.43;;;;;;;17.47;100.00;97568.06;4969484;28;20042;-55
2022/09/09 02:06:15;;;;;;;36.22;5.03;;;;;;;17.90;100.00;97564.81;4970580;28;20089;-55
2022/09/09 02:08:54;;;;;;;40.03;5.38;;;;;;;18.27;100.00;97555.81;4968517;28;20026;-55
2022/09/09 02:11:22;;;;;;;39.20;5.45;;;;;;;18.18;100.00;97552.09;4967777;28;20086;-56
2022/09/09 02:13:52;;;;;;;31.35;4.97;;;;;;;18.10;100.00;97549.19;4968450;28;20084;-55
2022/09/09 02:16:26;;;;;;;33.63;5.00;;;;;;;18.11;100.00;97550.88;4970453;28;20136;-55
2022/09/09 02:19:00;;;;;;;36.92;4.93;;;;;;;18.43;100.00;97550.94;4968204;28;20038;-54
2022/09/09 02:21:28;;;;;;;33.30;5.13;;;;;;;18.38;100.00;97553.13;4968425;28;20937;-55
2022/09/09 02:23:57;;;;;;;35.80;4.95;;;;;;;18.29;100.00;97551.22;4967731;28;20611;-55
2022/09/09 02:26:24;;;;;;;33.20;4.78;;;;;;;18.16;100.00;97548.72;4968120;28;20043;-57
2022/09/09 02:28:53;;;;;;;41.40;5.95;;;;;;;18.78;100.00;97543.78;4969914;28;20022;-55
2022/09/09 02:31:24;;;;;;;33.17;5.20;;;;;;;18.03;100.00;97542.72;4968303;28;20595;-56
2022/09/09 02:33:56;;;;;;;53.15;6.70;;;;;;;18.49;100.00;97539.06;4968926;28;20041;-55
2022/09/09 02:36:26;;;;;;;28.23;4.87;;;;;;;18.32;100.00;97537.78;4965176;28;20672;-55
2022/09/09 02:38:53;;;;;;;38.72;5.82;;;;;;;18.08;100.00;97540.56;4968948;28;20030;-56
2022/09/09 02:41:37;;;;;;;35.50;5.25;;;;;;;18.47;100.00;97546.25;4968682;28;20031;-55
2022/09/09 02:44:10;;;;;;;35.40;5.05;;;;;;;18.59;100.00;97539.16;4969908;28;20031;-56
2022/09/09 02:46:35;;;;;;;;;;;;;;;18.42;100.00;97549.28;4968861;28;20042;-57
2022/09/09 02:49:05;;;;;;;36.90;5.30;;;;;;;18.33;100.00;97543.91;4967120;28;19920;-54
2022/09/09 02:51:33;;;;;;;31.92;5.00;;;;;;;18.72;100.00;97539.00;4968777;28;20125;-55
2022/09/09 02:54:02;;;;;;;37.28;5.47;;;;;;;18.33;100.00;97541.28;4967668;28;20042;-55
2022/09/09 02:56:33;;;;;;;34.78;5.30;;;;;;;18.93;100.00;97536.41;4968068;28;20139;-54
2022/09/09 02:58:59;;;;;;;41.42;5.25;;;;;;;19.42;100.00;97546.38;4970244;28;20026;-55
2022/09/09 03:01:24;;;;;;;42.15;5.30;;;;;;;19.07;100.00;97542.25;4966834;28;20085;-55
2022/09/09 03:03:50;;;;;;;41.08;5.60;;;;;;;18.71;100.00;97547.88;4969312;28;20623;-55
2022/09/09 03:06:15;;;;;;;42.53;5.90;;;;;;;18.20;100.00;97544.88;4968296;28;20188;-55
2022/09/09 03:08:41;;;;;;;37.50;4.88;;;;;;;18.82;100.00;97540.81;4969043;28;20185;-55
2022/09/09 03:11:09;;;;;;;47.83;6.10;;;;;;;18.44;100.00;97541.25;4969642;28;20070;-55
2022/09/09 03:13:34;;;;;;;37.85;4.97;;;;;;;18.53;100.00;97543.13;4968709;28;20716;-56
2022/09/09 03:15:59;;;;;;;34.63;4.68;;;;;;;19.06;100.00;97532.66;4966911;28;20042;-55
2022/09/09 03:18:25;;;;;;;31.98;4.95;;;;;;;18.59;100.00;97534.72;4970217;28;20602;-53
2022/09/09 03:20:50;;;;;;;34.95;5.38;;;;;;;18.73;100.00;97530.09;4967427;28;20053;-52
2022/09/09 03:23:16;;;;;;;41.05;5.13;;;;;;;18.63;100.00;97541.41;4966903;28;20616;-53
2022/09/09 03:25:48;;;;;;;38.95;5.07;;;;;;;18.69;100.00;97538.28;4968227;28;20042;-54
2022/09/09 03:28:14;;;;;;;;;;;;;;;18.73;100.00;97540.66;4967256;28;20461;-53
2022/09/09 03:30:39;;;;;;;35.05;4.78;;;;;;;18.96;100.00;97531.72;4968174;28;19918;-53
2022/09/09 03:33:05;;;;;;;35.50;4.90;;;;;;;18.56;100.00;97545.50;4969069;28;20065;-53
2022/09/09 03:35:30;;;;;;;42.22;5.63;;;;;;;18.40;100.00;97534.53;4968261;28;20039;-54
2022/09/09 03:37:55;;;;;;;27.40;4.28;;;;;;;18.91;100.00;97538.34;4964095;28;20102;-55
2022/09/09 03:40:21;;;;;;;38.60;5.50;;;;;;;18.32;100.00;97539.56;4967035;28;20026;-55
2022/09/09 03:42:47;;;;;;;34.58;4.70;;;;;;;19.12;100.00;97535.75;4967350;28;20058;-56
2022/09/09 03:45:13;;;;;;;40.08;5.38;;;;;;;18.41;100.00;97537.03;4968275;28;20511;-53
2022/09/09 03:47:38;;;;;;;49.88;6.30;;;;;;;18.19;100.00;97535.28;4969052;28;20026;-54
2022/09/09 03:50:08;;;;;;;33.38;4.80;;;;;;;18.11;100.00;97535.06;4967467;28;20108;-56
2022/09/09 03:52:38;;;;;;;46.28;6.07;;;;;;;18.21;100.00;97535.97;4966308;28;20050;-54
2022/09/09 03:55:04;;;;;;;30.25;4.18;;;;;;;18.59;100.00;97542.63;4968716;28;20053;-54
2022/09/09 03:57:30;;;;;;;36.05;5.00;;;;;;;18.37;100.00;97529.50;4968269;28;20035;-54
2022/09/09 03:59:55;;;;;;;31.65;4.93;;;;;;;18.43;100.00;97529.81;4966292;28;20022;-54
2022/09/09 04:02:21;;;;;;;33.55;4.90;;;;;;;18.03;100.00;97537.44;4964818;28;20133;-55
2022/09/09 04:04:46;;;;;;;44.53;5.90;;;;;;;17.94;100.00;97538.16;4967507;28;20476;-54
2022/09/09 04:07:12;;;;;;;32.30;4.88;;;;;;;18.77;100.00;97537.66;4966492;28;20031;-54
2022/09/09 04:09:37;;;;;;;40.88;5.45;;;;;;;18.37;100.00;97540.06;4968947;28;20508;-54
2022/09/09 04:12:04;;;;;;;29.85;4.53;;;;;;;18.79;100.00;97537.53;4965678;28;20074;-54
2022/09/09 04:14:29;;;;;;;41.47;6.10;;;;;;;18.32;100.00;97536.94;4967268;28;20698;-54
2022/09/09 04:16:58;;;;;;;39.40;5.20;;;;;;;18.75;100.00;97525.53;4966922;28;20042;-54
2022/09/09 04:19:23;;;;;;;29.27;4.60;;;;;;;18.25;100.00;97526.88;4966252;28;20030;-56
2022/09/09 04:21:50;;;;;;;33.67;5.25;;;;;;;18.56;100.00;97527.03;4966796;28;20101;-56
2022/09/09 04:24:16;;;;;;;37.88;4.63;;;;;;;18.77;100.00;97528.91;4968715;28;20027;-54
2022/09/09 04:26:41;;;;;;;33.38;4.55;;;;;;;19.09;100.00;97528.06;4968400;28;20039;-54
2022/09/09 04:29:07;;;;;;;38.05;5.22;;;;;;;18.62;100.00;97528.38;4969280;28;20034;-54
2022/09/09 04:31:33;;;;;;;30.08;4.28;;;;;;;18.57;100.00;97534.00;4970817;28;20070;-54
2022/09/09 04:34:02;;;;;;;31.15;4.45;;;;;;;19.15;100.00;97538.13;4969551;28;20035;-54
2022/09/09 04:36:27;;;;;;;43.45;4.97;;;;;;;19.09;100.00;97534.19;4971199;28;20043;-56
2022/09/09 04:38:52;;;;;;;30.17;4.50;;;;;;;19.60;100.00;97545.81;4971137;28;20044;-55
2022/09/09 04:41:18;;;;;;;36.65;4.60;;;;;;;19.34;100.00;97534.78;4969950;28;20058;-54
2022/09/09 04:43:44;;;;;;;33.15;4.55;;;;;;;19.81;100.00;97533.41;4968723;28;20046;-54
2022/09/09 04:46:10;;;;;;;35.85;5.05;;;;;;;19.06;100.00;97530.00;4971553;28;20049;-54
2022/09/09 04:48:35;;;;;;;31.08;4.20;;;;;;;19.95;100.00;97532.22;4971583;28;20030;-54
2022/09/09 04:51:04;;;;;;;40.22;5.32;;;;;;;20.34;100.00;97529.69;4970320;28;20038;-55
2022/09/09 04:53:30;;;;;;;28.02;3.90;;;;;;;20.86;100.00;97526.88;4972595;28;20086;-56
2022/09/09 04:56:07;;;;;;;26.50;4.10;;;;;;;19.89;100.00;97532.75;4970437;28;20532;-55
2022/09/09 04:58:33;;;;;;;31.58;4.60;;;;;;;20.06;100.00;97531.28;4972303;28;20030;-54
2022/09/09 05:01:04;;;;;;;37.88;4.90;;;;;;;20.01;100.00;97533.47;4967676;28;20845;-54
2022/09/09 05:03:29;;;;;;;33.10;4.93;;;;;;;20.02;100.00;97537.81;4969773;28;21069;-54
2022/09/09 05:06:12;;;;;;;31.40;4.50;;;;;;;19.75;100.00;97541.03;4970125;28;20038;-54
2022/09/09 05:08:38;;;;;;;27.73;4.28;;;;;;;20.17;100.00;97533.81;4971106;28;20030;-54
2022/09/09 05:11:25;;;;;;;42.97;5.55;;;;;;;20.65;100.00;97536.75;4966763;28;20041;-54
2022/09/09 05:13:52;;;;;;;34.25;5.05;;;;;;;19.55;100.00;97532.94;4967885;28;20054;-54
2022/09/09 05:16:18;;;;;;;30.05;4.47;;;;;;;19.38;100.00;97542.31;4968769;28;20622;-55
2022/09/09 05:18:45;;;;;;;34.15;4.90;;;;;;;20.20;100.00;97538.84;4967154;28;20031;-56
2022/09/09 05:21:12;;;;;;;35.95;5.05;;;;;;;20.32;100.00;97541.41;4968337;28;20576;-54
2022/09/09 05:23:38;;;;;;;40.38;5.32;;;;;;;20.09;100.00;97544.25;4968533;28;20031;-54
2022/09/09 05:26:04;;;;;;;30.95;4.25;;;;;;;19.95;100.00;97555.19;4969932;28;20042;-57
2022/09/09 05:28:30;;;;;;;38.72;5.43;;;;;;;20.36;100.00;97550.75;4969123;28;20651;-54
2022/09/09 05:31:00;;;;;;;35.30;4.78;;;;;;;21.41;100.00;97551.94;4969120;28;20862;-54
2022/09/09 05:33:27;;;;;;;29.55;4.25;;;;;;;20.85;100.00;97554.34;4968655;28;20105;-55
2022/09/09 05:36:02;;;;;;;37.60;5.85;;;;;;;21.17;100.00;97559.38;4969530;28;20141;-55
2022/09/09 05:38:28;;;;;;;39.75;7.68;;;;;;;21.93;100.00;97560.38;4967825;28;20026;-54
2022/09/09 05:40:55;;;;;;;40.10;6.10;;;;;;;20.85;100.00;97564.94;4969328;28;20152;-55
2022/09/09 05:43:21;;;;;;;33.80;5.35;;;;;;;20.78;100.00;97559.34;4968796;28;20125;-56
2022/09/09 05:46:08;;;;;;;44.85;6.35;;;;;;;20.74;100.00;97562.44;4969011;28;20128;-55
2022/09/09 05:48:37;;;;;;;36.35;5.10;;;;;;;20.95;100.00;97564.94;4968532;28;20289;-54
2022/09/09 05:51:03;;;;;;;43.53;6.45;;;;;;;20.67;100.00;97567.44;4968559;28;20050;-55
2022/09/09 05:53:32;;;;;;;30.27;5.32;;;;;;;20.89;100.00;97561.03;4983299;28;20651;-53
2022/09/09 05:56:10;;;;;;;39.03;6.38;;;;;;;20.65;100.00;97573.84;4983994;28;20044;-58
2022/09/09 05:58:36;;;;;;;30.30;5.28;;;;;;;20.38;100.00;97581.44;4968123;28;20708;-54
2022/09/09 06:01:04;;;;;;;42.08;6.38;;;;;;;20.28;100.00;97577.06;4967485;28;20042;-54
2022/09/09 06:03:30;;;;;;;32.22;4.68;;;;;;;21.62;100.00;97573.03;4969835;28;20035;-54
2022/09/09 06:06:05;;;;;;;33.60;5.53;;;;;;;20.90;100.00;97580.44;4968270;28;20038;-54
2022/09/09 06:08:31;;;;;;;29.00;4.68;;;;;;;20.79;100.00;97571.63;4970214;28;20656;-55
2022/09/09 06:11:02;;;;;;;44.28;6.05;;;;;;;21.38;100.00;97577.78;4967485;28;20130;-54
2022/09/09 06:13:28;;;;;;;25.15;4.43;;;;;;;21.12;100.00;97576.69;4967688;28;20054;-54
2022/09/09 06:15:53;;;;;;;34.80;5.55;;;;;;;20.49;100.00;97575.16;4968620;28;20074;-55
2022/09/09 06:18:19;;;;;;;34.47;6.45;;;;;;;20.37;100.00;97574.44;4968933;28;20037;-54
2022/09/09 06:21:00;;;;;;;33.08;5.78;;;;;;;20.82;100.00;97567.88;4968271;28;20515;-55
2022/09/09 06:23:26;;;;;;;28.30;5.25;;;;;;;20.57;100.00;97566.56;4967941;28;20030;-57
2022/09/09 06:25:52;;;;;;;32.60;5.30;;;;;;;21.42;100.00;97574.84;4970045;28;20039;-55
2022/09/09 06:28:19;;;;;;;40.78;5.90;;;;;;;22.48;100.00;97570.22;4968249;28;20885;-53
2022/09/09 06:30:44;;;;;;;32.47;5.85;;;;;;;23.90;100.00;97572.19;4968069;28;20066;-55
2022/09/09 06:33:10;;;;;;;33.83;5.60;;;;;;;24.85;100.00;97572.06;4967241;28;20030;-54
2022/09/09 06:35:35;;;;;;;30.48;5.13;;;;;;;27.37;100.00;97573.44;4967979;28;20042;-54
2022/09/09 06:38:01;;;;;;;31.17;4.68;;;;;;;27.64;100.00;97581.91;4968230;28;20080;-54
2022/09/09 06:40:26;;;;;;;30.67;4.90;;;;;;;28.02;90.76;97584.56;4966458;28;20180;-54
2022/09/09 06:42:51;;;;;;;29.67;4.75;;;;;;;27.27;95.07;97581.69;4969440;28;20081;-54
2022/09/09 06:45:17;;;;;;;29.90;4.60;;;;;;;25.45;100.00;97582.50;4968027;28;20114;-54
2022/09/09 06:47:43;;;;;;;26.98;4.57;;;;;;;25.34;100.00;97583.66;4966847;28;20069;-54
2022/09/09 06:50:10;;;;;;;23.77;4.32;;;;;;;25.19;100.00;97583.47;4967534;28;20129;-54
2022/09/09 06:52:35;;;;;;;29.63;4.88;;;;;;;24.00;100.00;97587.03;4967669;28;20027;-54
2022/09/09 06:55:00;;;;;;;29.05;4.57;;;;;;;24.28;100.00;97592.22;4968176;28;20607;-54
2022/09/09 06:57:26;;;;;;;31.20;4.88;;;;;;;24.42;100.00;97594.25;4966994;28;20046;-55
2022/09/09 06:59:51;;;;;;;30.42;6.25;;;;;;;24.08;100.00;97596.94;4969182;28;20642;-54
2022/09/09 07:02:16;;;;;;;27.92;4.72;;;;;;;24.39;100.00;97596.38;4963304;28;20137;-54
2022/09/09 07:04:43;;;;;;;29.92;4.32;;;;;;;25.17;100.00;97596.13;4970504;28;20063;-54
2022/09/09 07:07:09;;;;;;;24.05;3.60;;;;;;;25.20;100.00;97606.50;4969224;28;20724;-54
2022/09/09 07:09:35;;;;;;;28.65;4.35;;;;;;;25.77;93.91;97604.84;4969145;28;20150;-54
2022/09/09 07:12:00;;;;;;;19.55;3.55;;;;;;;26.69;84.07;97607.97;4971178;28;20035;-56
2022/09/09 07:14:26;;;;;;;19.20;5.47;;;;;;;28.00;83.74;97613.41;4969110;28;20031;-56
2022/09/09 07:16:52;;;;;;;24.90;3.90;;;;;;;27.61;77.36;97609.06;4968340;28;20077;-54
2022/09/09 07:19:17;;;;;;;34.45;12.38;;;;;;;25.69;83.77;97612.88;4969226;28;20069;-54
2022/09/09 07:21:43;;;;;;;31.77;7.93;;;;;;;26.07;83.56;97605.16;4968471;28;20052;-54
2022/09/09 07:24:10;;;;;;;19.00;3.58;;;;;;;26.33;82.32;97611.09;4971459;28;20058;-54
2022/09/09 07:26:36;;;;;;;22.30;3.88;;;;;;;26.95;84.73;97614.03;4971750;28;20038;-55
2022/09/09 07:29:03;;;;;;;13.13;2.95;;;;;;;27.49;78.43;97604.13;4970126;28;20049;-55
2022/09/09 07:31:30;;;;;;;21.73;5.07;;;;;;;27.55;74.28;97615.94;4968331;28;20042;-54
2022/09/09 07:33:56;;;;;;;25.48;4.53;;;;;;;29.15;66.89;97626.31;4970077;28;20031;-55
2022/09/09 07:36:26;;;;;;;19.80;3.40;;;;;;;28.58;64.62;97633.25;4968831;28;20723;-53
2022/09/09 07:38:54;;;;;;;22.95;3.65;;;;;;;27.76;67.99;97617.13;4970183;28;20795;-53
2022/09/09 07:41:21;;;;;;;23.95;3.67;;;;;;;27.14;68.31;97612.72;4967192;28;20035;-54
2022/09/09 07:43:48;;;;;;;20.60;3.38;;;;;;;26.93;69.74;97616.88;4971222;28;20489;-54
2022/09/09 07:46:16;;;;;;;20.58;3.33;;;;;;;26.33;73.51;97621.78;4968972;28;20050;-55
2022/09/09 07:48:46;;;;;;;17.85;3.15;;;;;;;26.16;70.54;97614.81;4970496;28;20536;-55
2022/09/09 07:51:19;;;;;;;31.80;4.60;;;;;;;27.27;69.07;97624.53;4969723;28;20043;-54
2022/09/09 07:53:46;;;;;;;22.08;3.65;;;;;;;27.93;68.27;97624.03;4969759;28;20034;-53
2022/09/09 07:56:14;;;;;;;28.35;4.15;;;;;;;30.14;59.82;97622.84;4966611;28;20042;-54
2022/09/09 07:58:40;;;;;;;21.17;3.35;;;;;;;30.33;52.77;97637.47;4967192;28;20030;-54
2022/09/09 08:01:12;;;;;;;24.90;4.03;;;;;;;31.82;48.33;97630.47;4968009;28;20456;-54
2022/09/09 08:03:38;;;;;;;23.20;3.70;;;;;;;30.73;52.96;97621.53;4971839;28;20045;-54
2022/09/09 08:06:07;;;;;;;19.73;2.97;;;;;;;29.39;55.00;97630.47;4973405;28;20062;-53
2022/09/09 08:08:33;;;;;;;16.15;3.05;;;;;;;28.64;58.39;97627.13;4972883;28;20038;-53
2022/09/09 08:11:03;;;;;;;17.10;3.35;;;;;;;29.95;55.08;97628.91;4974196;28;20042;-54
2022/09/09 08:13:28;;;;;;;23.58;3.88;;;;;;;30.58;54.05;97622.69;4973575;28;20035;-55
2022/09/09 08:15:54;;;;;;;16.42;3.50;;;;;;;30.64;52.27;97627.25;4987491;28;20045;-54
2022/09/09 08:18:19;;;;;;;19.10;3.67;;;;;;;32.12;50.57;97630.06;4974403;28;20479;-54
2022/09/09 08:20:44;;;;;;;21.63;4.47;;;;;;;33.70;47.50;97636.09;4971013;28;20165;-54
2022/09/09 08:23:10;;;;;;;20.00;3.40;;;;;;;34.77;43.83;97629.66;4972147;28;20121;-55
2022/09/09 08:25:35;;;;;;;20.98;4.07;;;;;;;32.19;45.00;97636.28;4972732;28;20074;-54
2022/09/09 08:28:01;;;;;;;14.65;2.90;;;;;;;31.95;46.18;97621.56;4972465;28;20153;-56
2022/09/09 08:30:27;;;;;;;17.85;3.58;;;;;;;33.58;43.90;97634.06;4971298;28;20130;-53
2022/09/09 08:32:52;;;;;;;13.00;2.67;;;;;;;32.60;45.55;97631.66;4974335;28;20037;-54
2022/09/09 08:35:17;;;;;;;15.93;2.88;;;;;;;33.57;42.10;97632.41;4972591;28;20046;-55
2022/09/09 08:37:43;;;;;;;18.27;3.45;;;;;;;35.99;37.87;97625.78;4974589;28;20537;-56
2022/09/09 08:40:22;;;;;;;15.40;3.03;;;;;;;35.78;38.83;97635.34;4973289;28;20186;-54
2022/09/09 08:42:52;;;;;;;18.13;3.50;;;;;;;35.34;39.47;97632.84;4971669;28;20019;-54
2022/09/09 08:45:47;;;;;;;10.65;2.67;;;;;;;36.09;36.21;97631.47;4972832;28;20572;-53
2022/09/09 08:48:52;;;;;;;11.25;2.78;;;;;;;36.44;36.83;97630.66;4955535;28;20053;-53
2022/09/09 08:51:18;;;;;;;13.43;3.22;;;;;;;34.84;37.60;97624.97;4978506;28;20038;-55
2022/09/09 08:53:48;;;;;;;16.30;3.38;;;;;;;33.96;38.45;97630.44;4973939;28;20105;-54
2022/09/09 08:56:18;;;;;;;14.40;3.00;;;;;;;34.48;39.85;97632.03;4969789;28;20042;-56
2022/09/09 08:58:48;;;;;;;13.43;2.97;;;;;;;36.98;35.61;97638.56;4972491;28;20026;-56
2022/09/09 09:01:41;;;;;;;10.32;2.45;;;;;;;38.42;32.66;97632.84;4971829;28;20042;-54
2022/09/09 09:04:36;;;;;;;11.18;2.60;;;;;;;34.76;37.89;97631.53;4973004;28;20026;-56
2022/09/09 09:07:32;;;;;;;14.25;3.03;;;;;;;33.50;39.62;97626.19;4969317;28;20042;-55
2022/09/09 09:10:14;;;;;;;13.25;2.75;;;;;;;34.94;37.39;97619.84;4973024;28;20030;-54
2022/09/09 09:12:42;;;;;;;13.13;2.70;;;;;;;34.48;37.90;97634.75;4972649;28;20043;-56
2022/09/09 09:15:23;;;;;;;19.73;3.35;;;;;;;35.63;37.98;97625.75;4971524;28;20033;-55
2022/09/09 09:17:48;;;;;;;12.75;2.40;;;;;;;35.17;36.91;97621.00;4972181;28;20038;-54
2022/09/09 09:20:16;;;;;;;14.55;3.17;;;;;;;33.17;39.94;97627.25;4972553;28;20019;-56
2022/09/09 09:22:47;;;;;;;12.93;2.70;;;;;;;35.63;37.99;97616.78;4986476;28;20023;-54
2022/09/09 09:25:22;;;;;;;15.13;2.92;;;;;;;33.87;39.80;97620.94;4971902;28;20027;-54
2022/09/09 09:28:17;;;;;;;12.23;2.58;;;;;;;32.19;40.82;97613.88;4970804;28;20641;-54
2022/09/09 09:30:54;;;;;;;12.65;2.80;;;;;;;31.87;41.67;97613.66;4972585;28;20038;-54
2022/09/09 09:33:40;;;;;;;17.67;3.63;;;;;;;33.85;40.11;97612.22;4971634;28;20041;-54
2022/09/09 09:36:08;;;;;;;14.68;2.97;;;;;;;34.01;39.16;97610.84;4974643;28;20045;-54
2022/09/09 09:38:34;;;;;;;12.85;3.00;;;;;;;34.80;37.77;97605.66;4971320;28;20153;-54
2022/09/09 09:41:00;;;;;;;16.45;3.28;;;;;;;35.07;38.20;97600.69;4970664;28;20525;-55
2022/09/09 09:43:37;;;;;;;16.30;2.92;;;;;;;32.97;39.64;97599.50;4972809;28;20026;-54
2022/09/09 09:46:20;;;;;;;10.57;2.35;;;;;;;33.71;37.57;97599.88;4973611;28;20048;-54
2022/09/09 09:48:56;;;;;;;12.25;2.40;;;;;;;35.05;36.50;97600.09;4973107;28;20051;-55
2022/09/09 09:51:23;;;;;;;19.25;3.47;;;;;;;34.56;37.14;97591.13;4970155;28;20042;-55
2022/09/09 09:53:49;;;;;;;15.13;3.03;;;;;;;31.78;39.57;97596.03;4969258;28;20038;-55
2022/09/09 09:56:16;;;;;;;14.35;2.65;;;;;;;31.06;42.30;97590.34;4973214;28;20046;-55
2022/09/09 09:58:44;;;;;;;14.23;2.83;;;;;;;30.50;43.62;97584.16;4971575;28;20069;-57
2022/09/09 10:01:33;;;;;;;15.13;2.95;;;;;;;29.40;46.13;97581.06;4970211;28;20097;-54
2022/09/09 10:04:20;;;;;;;14.45;2.60;;;;;;;31.77;42.24;97583.63;4973316;28;20715;-54
2022/09/09 10:06:46;;;;;;;15.70;2.85;;;;;;;31.22;41.67;97581.91;4971575;28;20045;-55
2022/09/09 10:09:28;;;;;;;19.33;3.20;;;;;;;32.28;39.97;97586.44;4971542;28;20030;-55
2022/09/09 10:12:03;;;;;;;14.95;2.63;;;;;;;30.84;45.02;97579.72;4969203;28;20047;-56
2022/09/09 10:15:06;;;;;;;14.35;2.53;;;;;;;34.00;41.50;97576.72;4970567;28;20113;-54
2022/09/09 10:17:56;;;;;;;14.32;2.88;;;;;;;33.07;40.08;97583.66;4971551;28;20043;-55
2022/09/09 10:20:40;;;;;;;13.32;2.58;;;;;;;33.02;38.48;97580.75;4972665;28;20037;-54
2022/09/09 10:23:11;;;;;;;12.23;2.45;;;;;;;33.82;38.79;97569.41;4970781;28;20031;-54
2022/09/09 10:26:22;;;;;;;12.77;2.42;;;;;;;34.19;39.14;97566.78;4969978;28;20042;-54
2022/09/09 10:29:16;;;;;;;16.65;3.13;;;;;;;33.56;40.37;97571.28;4965270;28;20968;-54
2022/09/09 10:32:06;;;;;;;15.77;3.03;;;;;;;33.91;38.82;97567.22;4971071;28;20058;-55
2022/09/09 10:34:50;;;;;;;12.20;2.38;;;;;;;35.00;37.20;97562.03;4969198;28;20544;-54
2022/09/09 10:37:35;;;;;;;13.38;2.65;;;;;;;34.97;36.79;97567.91;4970844;28;20047;-55
2022/09/09 10:40:34;;;;;;;13.80;2.72;;;;;;;33.75;37.68;97558.66;4972655;28;20086;-54
2022/09/09 10:43:27;;;;;;;16.00;3.13;;;;;;;31.41;39.83;97557.88;4969056;28;20787;-54
2022/09/09 10:46:22;;;;;;;16.88;3.00;;;;;;;32.78;41.31;97544.56;4984836;28;20071;-55
2022/09/09 10:49:15;;;;;;;18.75;3.03;;;;;;;31.54;41.42;97544.44;4970688;28;20034;-56
2022/09/09 10:52:17;;;;;;;14.00;2.92;;;;;;;31.43;40.83;97539.63;4971262;28;20064;-54
2022/09/09 10:55:14;;;;;;;13.85;2.80;;;;;;;30.88;41.04;97537.91;4968396;28;20038;-56
2022/09/09 10:57:54;;;;;;;19.48;3.15;;;;;;;30.27;41.28;97540.53;4971435;28;20049;-56
2022/09/09 11:00:20;;;;;;;13.77;2.67;;;;;;;29.18;43.45;97536.47;4968605;28;20109;-53
2022/09/09 11:03:03;;;;;;;14.18;2.78;;;;;;;31.12;39.89;97533.81;4968188;28;20026;-54
2022/09/09 11:05:46;;;;;;;16.73;3.10;;;;;;;30.76;41.27;97528.75;4969054;28;20038;-53
2022/09/09 11:08:27;;;;;;;21.45;3.65;;;;;;;30.60;42.25;97529.94;4970190;28;20041;-53
2022/09/09 11:10:58;;;;;;;18.98;3.28;;;;;;;32.30;40.80;97532.28;4969563;28;20178;-53
2022/09/09 11:13:40;;;;;;;13.52;2.85;;;;;;;31.46;41.13;97534.66;4970693;28;20519;-56
2022/09/09 11:16:18;;;;;;;15.00;2.58;;;;;;;31.02;42.50;97529.88;4971018;28;20046;-54
2022/09/09 11:18:46;;;;;;;15.75;2.55;;;;;;;30.38;42.62;97528.41;4971767;28;20030;-55
2022/09/09 11:21:34;;;;;;;14.60;2.60;;;;;;;31.47;42.84;97524.72;4970002;28;20077;-54
2022/09/09 11:24:05;;;;;;;12.57;2.35;;;;;;;30.51;44.46;97532.00;4970121;28;20019;-54
2022/09/09 11:26:38;;;;;;;16.33;3.00;;;;;;;29.43;43.13;97539.59;4969915;28;20061;-56
2022/09/09 11:29:17;;;;;;;16.40;2.72;;;;;;;29.30;45.14;97529.56;4970250;28;20853;-56
2022/09/09 11:32:04;;;;;;;11.85;2.38;;;;;;;28.49;44.58;97529.72;4968137;28;20062;-54
2022/09/09 11:34:45;;;;;;;19.10;3.08;;;;;;;29.41;45.98;97526.34;4969015;28;20728;-55
2022/09/09 11:37:22;;;;;;;16.77;2.75;;;;;;;29.60;47.13;97529.38;4969787;28;20047;-54
2022/09/09 11:40:00;;;;;;;15.20;2.72;;;;;;;29.26;46.11;97522.88;4969581;28;20041;-56
2022/09/09 11:42:25;;;;;;;15.50;2.72;;;;;;;30.38;46.84;97523.03;4968424;28;20052;-54
2022/09/09 11:44:54;;;;;;;17.60;2.88;;;;;;;29.69;46.24;97525.50;4971212;28;20119;-54
2022/09/09 11:47:30;;;;;;;24.50;3.03;;;;;;;30.21;45.01;97528.72;4968651;28;20034;-54